Lucasville, Ohio
Current Conditions -  °F | °C
As of 7:15 PM on Friday 21 Nov 2014 (Local Time) from KDWU Reporting Station
Clear Clear  
Wind Chill: 25°   Ceiling: Unl
Heat Index: 25°   Visibility: 10mi
Dew Point: 12°   Wind: 0mph
Humidity: 59%   Direction: NA
Pressure: 30.47"   Gusts: NA
Location:  38.88°N, 83°W
Report Text: KDWU 220015Z AUTO 00000KT 10SM CLR M04/M11 A3047 RMK AO1
Loading
Personal Weather Stations






























Interactive Weather Map New forecast layout! Learn more

10-Day Weather Forecast

Advertisements
Track Severe Weather on mobile